sensor_id;sensor_type;location;lat;lon;timestamp;temperature;humidity
18781;DHT22;9519;51.890;8.970;2022-07-29T00:04:17;19.00;63.70
18781;DHT22;9519;51.890;8.970;2022-07-29T00:09:19;18.90;63.90
18781;DHT22;9519;51.890;8.970;2022-07-29T00:14:22;18.80;64.10
18781;DHT22;9519;51.890;8.970;2022-07-29T00:19:24;18.80;64.50
18781;DHT22;9519;51.890;8.970;2022-07-29T00:24:28;18.70;64.70
18781;DHT22;9519;51.890;8.970;2022-07-29T00:29:32;18.60;64.80
18781;DHT22;9519;51.890;8.970;2022-07-29T00:34:34;18.60;64.70
18781;DHT22;9519;51.890;8.970;2022-07-29T00:39:54;18.60;64.70
18781;DHT22;9519;51.890;8.970;2022-07-29T00:44:57;18.60;64.70
18781;DHT22;9519;51.890;8.970;2022-07-29T00:49:59;18.60;64.90
18781;DHT22;9519;51.890;8.970;2022-07-29T00:55:03;18.60;64.80
18781;DHT22;9519;51.890;8.970;2022-07-29T01:00:09;18.60;65.00
18781;DHT22;9519;51.890;8.970;2022-07-29T01:05:15;18.60;65.10
18781;DHT22;9519;51.890;8.970;2022-07-29T01:10:20;18.60;65.10
18781;DHT22;9519;51.890;8.970;2022-07-29T01:15:24;18.50;65.00
18781;DHT22;9519;51.890;8.970;2022-07-29T01:20:35;18.50;65.10
18781;DHT22;9519;51.890;8.970;2022-07-29T01:31:42;18.50;65.40
18781;DHT22;9519;51.890;8.970;2022-07-29T01:36:50;18.40;65.40
18781;DHT22;9519;51.890;8.970;2022-07-29T01:42:01;18.40;65.60
18781;DHT22;9519;51.890;8.970;2022-07-29T01:47:14;18.40;65.70
18781;DHT22;9519;51.890;8.970;2022-07-29T01:52:25;18.40;65.80
18781;DHT22;9519;51.890;8.970;2022-07-29T01:57:36;18.40;66.60
18781;DHT22;9519;51.890;8.970;2022-07-29T02:02:44;18.30;66.00
18781;DHT22;9519;51.890;8.970;2022-07-29T02:07:49;18.30;66.20
18781;DHT22;9519;51.890;8.970;2022-07-29T02:12:54;18.20;66.60
18781;DHT22;9519;51.890;8.970;2022-07-29T02:18:03;18.20;66.80
18781;DHT22;9519;51.890;8.970;2022-07-29T02:23:10;18.10;66.80
18781;DHT22;9519;51.890;8.970;2022-07-29T02:28:15;18.10;66.90
18781;DHT22;9519;51.890;8.970;2022-07-29T02:33:21;18.10;67.20
18781;DHT22;9519;51.890;8.970;2022-07-29T02:38:28;18.10;67.40
18781;DHT22;9519;51.890;8.970;2022-07-29T02:43:54;18.00;67.60
18781;DHT22;9519;51.890;8.970;2022-07-29T02:49:04;17.90;68.00
18781;DHT22;9519;51.890;8.970;2022-07-29T02:54:19;17.80;68.30
18781;DHT22;9519;51.890;8.970;2022-07-29T02:59:27;17.70;68.40
18781;DHT22;9519;51.890;8.970;2022-07-29T03:04:34;17.70;68.50
18781;DHT22;9519;51.890;8.970;2022-07-29T03:09:37;17.60;68.60
18781;DHT22;9519;51.890;8.970;2022-07-29T03:14:41;17.60;68.70
18781;DHT22;9519;51.890;8.970;2022-07-29T03:19:46;17.50;68.90
18781;DHT22;9519;51.890;8.970;2022-07-29T03:24:49;17.50;69.20
18781;DHT22;9519;51.890;8.970;2022-07-29T03:29:51;17.40;69.30
18781;DHT22;9519;51.890;8.970;2022-07-29T03:34:54;17.30;69.60
18781;DHT22;9519;51.890;8.970;2022-07-29T03:39:58;17.30;69.70
18781;DHT22;9519;51.890;8.970;2022-07-29T03:45:02;17.20;69.90
18781;DHT22;9519;51.890;8.970;2022-07-29T03:50:10;17.20;70.20
18781;DHT22;9519;51.890;8.970;2022-07-29T03:55:16;17.10;71.10
18781;DHT22;9519;51.890;8.970;2022-07-29T04:00:18;17.10;70.50
18781;DHT22;9519;51.890;8.970;2022-07-29T04:05:22;17.10;70.60
18781;DHT22;9519;51.890;8.970;2022-07-29T04:10:24;17.10;70.90
18781;DHT22;9519;51.890;8.970;2022-07-29T04:15:27;17.10;71.10
18781;DHT22;9519;51.890;8.970;2022-07-29T04:20:30;17.10;70.80
18781;DHT22;9519;51.890;8.970;2022-07-29T04:25:32;17.20;71.10
18781;DHT22;9519;51.890;8.970;2022-07-29T04:30:35;17.20;71.00
18781;DHT22;9519;51.890;8.970;2022-07-29T04:35:39;17.20;71.00
18781;DHT22;9519;51.890;8.970;2022-07-29T04:40:41;17.30;71.00
18781;DHT22;9519;51.890;8.970;2022-07-29T04:45:44;17.30;71.00
18781;DHT22;9519;51.890;8.970;2022-07-29T04:50:47;17.30;71.20
18781;DHT22;9519;51.890;8.970;2022-07-29T04:55:52;17.40;71.50
18781;DHT22;9519;51.890;8.970;2022-07-29T05:00:54;17.40;71.60
18781;DHT22;9519;51.890;8.970;2022-07-29T05:05:58;17.50;71.80
18781;DHT22;9519;51.890;8.970;2022-07-29T05:11:00;17.50;71.90
18781;DHT22;9519;51.890;8.970;2022-07-29T05:16:02;17.60;72.00
18781;DHT22;9519;51.890;8.970;2022-07-29T05:21:05;17.60;71.90
18781;DHT22;9519;51.890;8.970;2022-07-29T05:26:08;17.60;72.10
18781;DHT22;9519;51.890;8.970;2022-07-29T05:31:10;17.60;72.30
18781;DHT22;9519;51.890;8.970;2022-07-29T05:36:13;17.70;72.40
18781;DHT22;9519;51.890;8.970;2022-07-29T05:41:15;17.70;72.50
18781;DHT22;9519;51.890;8.970;2022-07-29T05:46:17;17.70;72.50
18781;DHT22;9519;51.890;8.970;2022-07-29T05:51:21;17.70;73.30
18781;DHT22;9519;51.890;8.970;2022-07-29T05:56:23;17.80;72.80
18781;DHT22;9519;51.890;8.970;2022-07-29T06:01:25;17.80;73.20
18781;DHT22;9519;51.890;8.970;2022-07-29T06:06:29;17.80;73.60
18781;DHT22;9519;51.890;8.970;2022-07-29T06:11:31;17.80;74.00
18781;DHT22;9519;51.890;8.970;2022-07-29T06:16:33;17.80;75.00
18781;DHT22;9519;51.890;8.970;2022-07-29T06:21:38;17.90;74.60
18781;DHT22;9519;51.890;8.970;2022-07-29T06:26:44;17.90;74.70
18781;DHT22;9519;51.890;8.970;2022-07-29T06:31:46;17.90;74.60
18781;DHT22;9519;51.890;8.970;2022-07-29T06:36:49;18.00;74.60
18781;DHT22;9519;51.890;8.970;2022-07-29T06:41:53;18.00;75.00
18781;DHT22;9519;51.890;8.970;2022-07-29T06:46:57;18.00;75.30
18781;DHT22;9519;51.890;8.970;2022-07-29T06:52:01;18.10;75.20
18781;DHT22;9519;51.890;8.970;2022-07-29T06:57:04;18.20;75.20
18781;DHT22;9519;51.890;8.970;2022-07-29T07:02:06;18.30;75.40
18781;DHT22;9519;51.890;8.970;2022-07-29T07:07:10;18.40;75.60
18781;DHT22;9519;51.890;8.970;2022-07-29T07:12:12;18.50;76.00
18781;DHT22;9519;51.890;8.970;2022-07-29T07:17:14;18.60;76.00
18781;DHT22;9519;51.890;8.970;2022-07-29T07:22:17;18.70;76.00
18781;DHT22;9519;51.890;8.970;2022-07-29T07:27:20;18.90;75.90
18781;DHT22;9519;51.890;8.970;2022-07-29T07:32:22;19.00;75.50
18781;DHT22;9519;51.890;8.970;2022-07-29T07:37:25;19.20;75.20
18781;DHT22;9519;51.890;8.970;2022-07-29T07:42:28;19.40;75.00
18781;DHT22;9519;51.890;8.970;2022-07-29T07:47:30;19.60;74.60
18781;DHT22;9519;51.890;8.970;2022-07-29T07:52:33;19.80;74.30
18781;DHT22;9519;51.890;8.970;2022-07-29T07:57:35;20.00;74.40
18781;DHT22;9519;51.890;8.970;2022-07-29T08:02:38;20.20;74.60
18781;DHT22;9519;51.890;8.970;2022-07-29T08:07:42;20.50;74.50
18781;DHT22;9519;51.890;8.970;2022-07-29T08:12:45;20.70;74.30
18781;DHT22;9519;51.890;8.970;2022-07-29T08:17:47;20.90;74.00
18781;DHT22;9519;51.890;8.970;2022-07-29T08:22:51;21.00;73.90
18781;DHT22;9519;51.890;8.970;2022-07-29T08:27:54;21.20;73.20
18781;DHT22;9519;51.890;8.970;2022-07-29T08:32:56;21.30;72.30
18781;DHT22;9519;51.890;8.970;2022-07-29T08:37:59;21.40;71.50
18781;DHT22;9519;51.890;8.970;2022-07-29T08:43:05;21.50;71.00
18781;DHT22;9519;51.890;8.970;2022-07-29T08:48:08;21.60;70.60
18781;DHT22;9519;51.890;8.970;2022-07-29T08:53:13;21.70;70.20
18781;DHT22;9519;51.890;8.970;2022-07-29T08:58:17;21.80;70.60
18781;DHT22;9519;51.890;8.970;2022-07-29T09:03:23;21.90;70.50
18781;DHT22;9519;51.890;8.970;2022-07-29T09:08:27;22.00;70.20
18781;DHT22;9519;51.890;8.970;2022-07-29T09:13:29;22.00;70.00
18781;DHT22;9519;51.890;8.970;2022-07-29T09:18:35;22.10;70.00
18781;DHT22;9519;51.890;8.970;2022-07-29T09:29:11;22.30;69.10
18781;DHT22;9519;51.890;8.970;2022-07-29T09:34:15;22.40;69.10
18781;DHT22;9519;51.890;8.970;2022-07-29T09:39:30;22.40;69.10
18781;DHT22;9519;51.890;8.970;2022-07-29T09:44:44;22.50;68.40
18781;DHT22;9519;51.890;8.970;2022-07-29T09:49:54;22.50;68.20
18781;DHT22;9519;51.890;8.970;2022-07-29T09:55:06;22.60;68.30
18781;DHT22;9519;51.890;8.970;2022-07-29T10:00:12;22.80;68.20
18781;DHT22;9519;51.890;8.970;2022-07-29T10:05:18;22.90;68.20
18781;DHT22;9519;51.890;8.970;2022-07-29T10:10:24;23.10;68.00
18781;DHT22;9519;51.890;8.970;2022-07-29T10:15:29;23.30;67.50
18781;DHT22;9519;51.890;8.970;2022-07-29T10:20:34;23.40;67.30
18781;DHT22;9519;51.890;8.970;2022-07-29T10:25:41;23.50;66.70
18781;DHT22;9519;51.890;8.970;2022-07-29T10:30:46;23.60;65.90
18781;DHT22;9519;51.890;8.970;2022-07-29T10:36:11;23.60;65.70
18781;DHT22;9519;51.890;8.970;2022-07-29T10:41:37;23.80;64.90
18781;DHT22;9519;51.890;8.970;2022-07-29T10:46:49;23.80;64.60
18781;DHT22;9519;51.890;8.970;2022-07-29T10:52:04;23.90;64.50
18781;DHT22;9519;51.890;8.970;2022-07-29T10:57:17;23.90;64.20
18781;DHT22;9519;51.890;8.970;2022-07-29T11:02:43;24.00;63.70
18781;DHT22;9519;51.890;8.970;2022-07-29T11:08:17;23.90;64.00
18781;DHT22;9519;51.890;8.970;2022-07-29T11:13:49;24.10;64.20
18781;DHT22;9519;51.890;8.970;2022-07-29T11:19:21;24.20;64.40
18781;DHT22;9519;51.890;8.970;2022-07-29T11:24:25;24.40;63.70
18781;DHT22;9519;51.890;8.970;2022-07-29T11:29:31;24.50;63.40
18781;DHT22;9519;51.890;8.970;2022-07-29T11:34:35;24.80;63.50
18781;DHT22;9519;51.890;8.970;2022-07-29T11:39:41;25.00;63.50
18781;DHT22;9519;51.890;8.970;2022-07-29T11:44:57;25.20;63.90
18781;DHT22;9519;51.890;8.970;2022-07-29T11:50:02;25.40;63.50
18781;DHT22;9519;51.890;8.970;2022-07-29T11:55:07;25.60;63.40
18781;DHT22;9519;51.890;8.970;2022-07-29T12:00:11;25.70;62.50
18781;DHT22;9519;51.890;8.970;2022-07-29T12:05:31;25.80;62.70
18781;DHT22;9519;51.890;8.970;2022-07-29T12:10:34;25.90;62.70
18781;DHT22;9519;51.890;8.970;2022-07-29T12:15:38;26.00;62.10
18781;DHT22;9519;51.890;8.970;2022-07-29T12:20:41;26.10;61.60
18781;DHT22;9519;51.890;8.970;2022-07-29T12:25:44;26.20;61.40
18781;DHT22;9519;51.890;8.970;2022-07-29T12:30:49;26.20;60.80
18781;DHT22;9519;51.890;8.970;2022-07-29T12:35:56;26.30;60.60
18781;DHT22;9519;51.890;8.970;2022-07-29T12:41:00;26.40;60.40
18781;DHT22;9519;51.890;8.970;2022-07-29T12:46:14;26.50;60.20
18781;DHT22;9519;51.890;8.970;2022-07-29T12:51:16;26.50;59.90
18781;DHT22;9519;51.890;8.970;2022-07-29T12:56:19;26.60;60.00
18781;DHT22;9519;51.890;8.970;2022-07-29T13:01:22;26.80;59.70
18781;DHT22;9519;51.890;8.970;2022-07-29T13:06:36;27.00;59.50
18781;DHT22;9519;51.890;8.970;2022-07-29T13:11:47;27.20;59.10
18781;DHT22;9519;51.890;8.970;2022-07-29T13:17:05;27.40;59.50
18781;DHT22;9519;51.890;8.970;2022-07-29T13:22:10;27.60;58.70
18781;DHT22;9519;51.890;8.970;2022-07-29T13:27:14;27.70;58.20
18781;DHT22;9519;51.890;8.970;2022-07-29T13:32:19;27.80;57.70
18781;DHT22;9519;51.890;8.970;2022-07-29T13:37:21;28.00;58.20
18781;DHT22;9519;51.890;8.970;2022-07-29T13:42:24;28.10;56.50
18781;DHT22;9519;51.890;8.970;2022-07-29T13:47:28;28.20;56.40
18781;DHT22;9519;51.890;8.970;2022-07-29T13:52:31;28.40;56.00
18781;DHT22;9519;51.890;8.970;2022-07-29T13:57:33;28.60;55.70
18781;DHT22;9519;51.890;8.970;2022-07-29T14:02:37;28.90;55.20
18781;DHT22;9519;51.890;8.970;2022-07-29T14:07:40;29.20;54.20
18781;DHT22;9519;51.890;8.970;2022-07-29T14:12:42;29.50;53.80
18781;DHT22;9519;51.890;8.970;2022-07-29T14:17:45;29.70;52.80
18781;DHT22;9519;51.890;8.970;2022-07-29T14:22:47;29.90;52.20
18781;DHT22;9519;51.890;8.970;2022-07-29T14:27:50;29.90;51.60
18781;DHT22;9519;51.890;8.970;2022-07-29T14:32:54;29.90;51.60
18781;DHT22;9519;51.890;8.970;2022-07-29T14:37:57;30.00;51.50
18781;DHT22;9519;51.890;8.970;2022-07-29T14:42:59;30.10;51.70
18781;DHT22;9519;51.890;8.970;2022-07-29T14:48:03;30.30;50.50
18781;DHT22;9519;51.890;8.970;2022-07-29T14:53:05;30.40;50.50
18781;DHT22;9519;51.890;8.970;2022-07-29T14:58:08;30.50;50.20
18781;DHT22;9519;51.890;8.970;2022-07-29T15:03:11;30.40;49.60
18781;DHT22;9519;51.890;8.970;2022-07-29T15:08:14;30.20;50.20
18781;DHT22;9519;51.890;8.970;2022-07-29T15:13:16;29.90;49.50
18781;DHT22;9519;51.890;8.970;2022-07-29T15:18:20;29.70;49.10
18781;DHT22;9519;51.890;8.970;2022-07-29T15:23:22;29.50;49.30
18781;DHT22;9519;51.890;8.970;2022-07-29T15:28:24;29.30;49.70
18781;DHT22;9519;51.890;8.970;2022-07-29T15:33:27;29.00;49.70
18781;DHT22;9519;51.890;8.970;2022-07-29T15:38:30;28.90;49.70
18781;DHT22;9519;51.890;8.970;2022-07-29T15:43:32;28.80;49.80
18781;DHT22;9519;51.890;8.970;2022-07-29T15:48:38;28.60;49.80
18781;DHT22;9519;51.890;8.970;2022-07-29T15:53:40;28.60;50.30
18781;DHT22;9519;51.890;8.970;2022-07-29T15:58:43;28.60;50.10
18781;DHT22;9519;51.890;8.970;2022-07-29T16:03:46;28.50;49.90
18781;DHT22;9519;51.890;8.970;2022-07-29T16:08:49;28.40;50.20
18781;DHT22;9519;51.890;8.970;2022-07-29T16:13:51;28.20;50.20
18781;DHT22;9519;51.890;8.970;2022-07-29T16:18:54;28.00;50.40
18781;DHT22;9519;51.890;8.970;2022-07-29T16:23:56;27.80;50.50
18781;DHT22;9519;51.890;8.970;2022-07-29T16:29:01;27.60;50.70
18781;DHT22;9519;51.890;8.970;2022-07-29T16:34:04;27.40;51.10
18781;DHT22;9519;51.890;8.970;2022-07-29T16:39:07;27.20;51.20
18781;DHT22;9519;51.890;8.970;2022-07-29T16:44:10;27.00;51.30
18781;DHT22;9519;51.890;8.970;2022-07-29T16:49:13;26.80;51.30
18781;DHT22;9519;51.890;8.970;2022-07-29T16:54:16;26.70;51.60
18781;DHT22;9519;51.890;8.970;2022-07-29T16:59:18;26.50;51.60
18781;DHT22;9519;51.890;8.970;2022-07-29T17:04:21;26.50;51.70
18781;DHT22;9519;51.890;8.970;2022-07-29T17:09:23;26.30;51.80
18781;DHT22;9519;51.890;8.970;2022-07-29T17:14:27;26.30;52.10
18781;DHT22;9519;51.890;8.970;2022-07-29T17:19:33;26.20;52.00
18781;DHT22;9519;51.890;8.970;2022-07-29T17:24:36;26.10;52.00
18781;DHT22;9519;51.890;8.970;2022-07-29T17:29:38;25.90;52.40
18781;DHT22;9519;51.890;8.970;2022-07-29T17:34:42;25.80;53.60
18781;DHT22;9519;51.890;8.970;2022-07-29T17:39:46;25.50;54.30
18781;DHT22;9519;51.890;8.970;2022-07-29T17:44:48;25.10;55.10
18781;DHT22;9519;51.890;8.970;2022-07-29T17:49:51;24.90;55.60
18781;DHT22;9519;51.890;8.970;2022-07-29T17:54:54;24.60;56.00
18781;DHT22;9519;51.890;8.970;2022-07-29T17:59:56;24.40;56.60
18781;DHT22;9519;51.890;8.970;2022-07-29T18:04:59;24.10;57.00
18781;DHT22;9519;51.890;8.970;2022-07-29T18:10:02;23.90;57.30
18781;DHT22;9519;51.890;8.970;2022-07-29T18:15:05;23.80;57.80
18781;DHT22;9519;51.890;8.970;2022-07-29T18:20:10;23.60;58.30
18781;DHT22;9519;51.890;8.970;2022-07-29T18:25:12;23.50;58.50
18781;DHT22;9519;51.890;8.970;2022-07-29T18:30:15;23.30;58.60
18781;DHT22;9519;51.890;8.970;2022-07-29T18:35:18;23.30;58.90
18781;DHT22;9519;51.890;8.970;2022-07-29T18:40:21;23.20;59.10
18781;DHT22;9519;51.890;8.970;2022-07-29T18:45:25;23.00;59.30
18781;DHT22;9519;51.890;8.970;2022-07-29T18:50:28;23.00;59.40
18781;DHT22;9519;51.890;8.970;2022-07-29T18:55:30;22.90;59.80
18781;DHT22;9519;51.890;8.970;2022-07-29T19:00:35;22.90;59.90
18781;DHT22;9519;51.890;8.970;2022-07-29T19:05:38;22.70;60.40
18781;DHT22;9519;51.890;8.970;2022-07-29T19:10:40;22.60;61.60
18781;DHT22;9519;51.890;8.970;2022-07-29T19:15:43;22.40;61.90
18781;DHT22;9519;51.890;8.970;2022-07-29T19:20:47;22.30;62.80
18781;DHT22;9519;51.890;8.970;2022-07-29T19:25:49;22.20;63.70
18781;DHT22;9519;51.890;8.970;2022-07-29T19:30:51;22.00;65.60
18781;DHT22;9519;51.890;8.970;2022-07-29T19:35:55;21.80;66.90
18781;DHT22;9519;51.890;8.970;2022-07-29T19:40:57;21.50;69.90
18781;DHT22;9519;51.890;8.970;2022-07-29T19:45:59;21.10;72.30
18781;DHT22;9519;51.890;8.970;2022-07-29T19:51:03;20.60;75.80
18781;DHT22;9519;51.890;8.970;2022-07-29T19:56:06;20.10;77.50
18781;DHT22;9519;51.890;8.970;2022-07-29T20:01:08;19.90;78.90
18781;DHT22;9519;51.890;8.970;2022-07-29T20:06:12;19.70;80.10
18781;DHT22;9519;51.890;8.970;2022-07-29T20:11:14;19.50;81.70
18781;DHT22;9519;51.890;8.970;2022-07-29T20:16:16;19.30;82.00
18781;DHT22;9519;51.890;8.970;2022-07-29T20:21:20;19.20;83.30
18781;DHT22;9519;51.890;8.970;2022-07-29T20:26:22;19.00;85.10
18781;DHT22;9519;51.890;8.970;2022-07-29T20:31:24;18.80;86.20
18781;DHT22;9519;51.890;8.970;2022-07-29T20:36:28;18.70;87.80
18781;DHT22;9519;51.890;8.970;2022-07-29T20:41:32;18.60;89.10
18781;DHT22;9519;51.890;8.970;2022-07-29T20:46:37;18.60;90.00
18781;DHT22;9519;51.890;8.970;2022-07-29T20:51:41;18.70;90.70
18781;DHT22;9519;51.890;8.970;2022-07-29T20:56:43;18.60;91.20
18781;DHT22;9519;51.890;8.970;2022-07-29T21:01:45;18.70;91.60
18781;DHT22;9519;51.890;8.970;2022-07-29T21:06:49;18.70;92.10
18781;DHT22;9519;51.890;8.970;2022-07-29T21:11:51;18.80;92.60
18781;DHT22;9519;51.890;8.970;2022-07-29T21:16:53;18.80;93.00
18781;DHT22;9519;51.890;8.970;2022-07-29T21:21:56;18.80;93.30
18781;DHT22;9519;51.890;8.970;2022-07-29T21:26:58;18.90;93.70
18781;DHT22;9519;51.890;8.970;2022-07-29T21:32:14;18.90;94.00
18781;DHT22;9519;51.890;8.970;2022-07-29T21:37:18;18.90;94.30
18781;DHT22;9519;51.890;8.970;2022-07-29T21:42:20;18.90;94.70
18781;DHT22;9519;51.890;8.970;2022-07-29T21:47:22;18.90;95.00
18781;DHT22;9519;51.890;8.970;2022-07-29T21:52:26;18.90;95.10
18781;DHT22;9519;51.890;8.970;2022-07-29T21:57:28;18.80;95.60
18781;DHT22;9519;51.890;8.970;2022-07-29T22:02:30;18.90;95.80
18781;DHT22;9519;51.890;8.970;2022-07-29T22:07:33;18.90;96.20
18781;DHT22;9519;51.890;8.970;2022-07-29T22:12:36;18.80;96.60
18781;DHT22;9519;51.890;8.970;2022-07-29T22:17:38;18.80;96.90
18781;DHT22;9519;51.890;8.970;2022-07-29T22:22:41;18.80;97.30
18781;DHT22;9519;51.890;8.970;2022-07-29T22:27:43;18.70;97.70
18781;DHT22;9519;51.890;8.970;2022-07-29T22:32:46;18.70;97.80
18781;DHT22;9519;51.890;8.970;2022-07-29T22:37:50;18.70;98.00
18781;DHT22;9519;51.890;8.970;2022-07-29T22:42:52;18.60;98.20
18781;DHT22;9519;51.890;8.970;2022-07-29T22:47:54;18.60;98.30
18781;DHT22;9519;51.890;8.970;2022-07-29T22:52:58;18.50;98.50
18781;DHT22;9519;51.890;8.970;2022-07-29T22:58:00;18.40;98.70
18781;DHT22;9519;51.890;8.970;2022-07-29T23:03:04;18.30;99.00
18781;DHT22;9519;51.890;8.970;2022-07-29T23:08:07;18.30;99.40
18781;DHT22;9519;51.890;8.970;2022-07-29T23:13:10;18.30;99.50
18781;DHT22;9519;51.890;8.970;2022-07-29T23:18:12;18.20;99.80
18781;DHT22;9519;51.890;8.970;2022-07-29T23:23:16;18.00;99.90
18781;DHT22;9519;51.890;8.970;2022-07-29T23:28:18;17.90;99.90
18781;DHT22;9519;51.890;8.970;2022-07-29T23:33:20;17.80;99.90
18781;DHT22;9519;51.890;8.970;2022-07-29T23:38:24;17.70;99.90
18781;DHT22;9519;51.890;8.970;2022-07-29T23:43:26;17.60;99.90
18781;DHT22;9519;51.890;8.970;2022-07-29T23:48:28;17.50;99.90
18781;DHT22;9519;51.890;8.970;2022-07-29T23:53:35;17.50;99.90
18781;DHT22;9519;51.890;8.970;2022-07-29T23:58:38;17.50;99.90
